Time;durP1;ratioP1;P1;durP2;ratioP2;P2;SDS_P1;SDS_P2;PMS_P1;PMS_P2;Temp;Humidity;BMP_temperature;BMP_pressure;BME280_temperature;BME280_humidity;BME280_pressure;Samples;Min_cycle;Max_cycle;Signal;HPM_P1;HPM_P2
2022/10/19 00:00:49;;;;;;;4.88;1.30;;;11.30;99.90;;;;;;5115943;28;20044;-55
2022/10/19 00:03:15;;;;;;;7.05;1.80;;;11.30;99.90;;;;;;5115600;28;20110;-55
2022/10/19 00:05:41;;;;;;;4.22;1.33;;;11.30;99.90;;;;;;5115265;28;20032;-55
2022/10/19 00:08:07;;;;;;;7.22;1.48;;;11.20;99.90;;;;;;5113674;28;20462;-55
2022/10/19 00:10:33;;;;;;;4.38;1.30;;;11.30;99.90;;;;;;5128318;27;20362;-55
2022/10/19 00:12:59;;;;;;;6.03;1.70;;;11.30;99.90;;;;;;5136102;27;20037;-55
2022/10/19 00:15:24;;;;;;;6.85;1.30;;;11.40;99.90;;;;;;5135988;27;20477;-55
2022/10/19 00:17:50;;;;;;;11.00;2.00;;;11.30;99.90;;;;;;5135487;27;20438;-55
2022/10/19 00:20:16;;;;;;;5.85;1.73;;;11.20;99.90;;;;;;5117596;27;20422;-55
2022/10/19 00:22:41;;;;;;;6.72;1.58;;;11.20;99.90;;;;;;5135880;27;20034;-55
2022/10/19 00:25:07;;;;;;;6.75;1.80;;;11.30;99.90;;;;;;5135551;27;20465;-55
2022/10/19 00:27:34;;;;;;;6.25;1.38;;;11.20;99.90;;;;;;5135616;27;20035;-55
2022/10/19 00:30:00;;;;;;;9.05;2.00;;;11.30;99.90;;;;;;5117250;27;20050;-55
2022/10/19 00:32:26;;;;;;;6.75;2.08;;;11.40;99.90;;;;;;5135564;27;20043;-55
2022/10/19 00:34:51;;;;;;;9.70;2.53;;;11.40;99.90;;;;;;5135620;27;20053;-55
2022/10/19 00:37:17;;;;;;;8.65;2.53;;;11.30;99.90;;;;;;5134135;27;20488;-55
2022/10/19 00:39:42;;;;;;;7.43;2.30;;;11.40;99.90;;;;;;5133295;27;20054;-54
2022/10/19 00:42:12;;;;;;;7.20;1.80;;;11.40;99.90;;;;;;5118144;27;20043;-55
2022/10/19 00:44:37;;;;;;;11.73;2.05;;;11.40;99.90;;;;;;5114950;28;20101;-55
2022/10/19 00:47:06;;;;;;;4.65;1.65;;;11.30;99.90;;;;;;5114530;28;20489;-55
2022/10/19 00:49:36;;;;;;;11.75;2.42;;;11.40;99.90;;;;;;5114899;28;20035;-55
2022/10/19 00:52:07;;;;;;;9.18;1.83;;;11.40;99.90;;;;;;5114680;28;20040;-55
2022/10/19 00:54:37;;;;;;;5.50;1.88;;;11.40;99.90;;;;;;5114751;28;20040;-55
2022/10/19 00:57:03;;;;;;;4.57;1.38;;;11.50;99.90;;;;;;5114548;28;20516;-55
2022/10/19 00:59:32;;;;;;;5.22;2.72;;;11.50;99.90;;;;;;5114346;28;20071;-55
2022/10/19 01:02:00;;;;;;;5.97;1.90;;;11.50;99.90;;;;;;5114623;28;20035;-55
2022/10/19 01:04:27;;;;;;;5.35;1.80;;;11.40;99.90;;;;;;5114613;28;20036;-55
2022/10/19 01:06:54;;;;;;;7.38;2.45;;;11.50;99.90;;;;;;5113602;28;20438;-55
2022/10/19 01:09:19;;;;;;;7.40;1.58;;;11.40;99.90;;;;;;5112877;28;20035;-55
2022/10/19 01:11:54;;;;;;;8.25;1.50;;;11.40;99.90;;;;;;5112344;27;20172;-55
2022/10/19 01:14:57;;;;;;;8.27;1.85;;;11.50;99.90;;;;;;5134590;27;20087;-55
2022/10/19 01:17:45;;;;;;;9.50;1.90;;;11.50;99.90;;;;;;5134656;27;20099;-55
2022/10/19 01:20:44;;;;;;;6.05;1.38;;;11.60;99.90;;;;;;5134905;27;20043;-55
2022/10/19 01:23:36;;;;;;;12.05;2.25;;;11.50;99.90;;;;;;5134812;27;20035;-55
2022/10/19 01:26:13;;;;;;;5.45;1.85;;;11.50;99.90;;;;;;5134869;27;20171;-55
2022/10/19 01:29:11;;;;;;;8.18;1.67;;;11.50;99.90;;;;;;5134811;27;20479;-55
2022/10/19 01:31:55;;;;;;;8.43;1.50;;;11.60;99.90;;;;;;5031531;28;20064;-55
2022/10/19 01:34:27;;;;;;;8.75;1.73;;;11.50;99.90;;;;;;5031617;28;20110;-55
2022/10/19 01:37:04;;;;;;;11.23;1.92;;;11.60;99.90;;;;;;5029795;28;20525;-55
2022/10/19 01:39:48;;;;;;;6.97;1.17;;;11.50;99.90;;;;;;5025938;28;20050;-55
2022/10/19 01:42:23;;;;;;;5.65;1.67;;;11.70;99.90;;;;;;5010767;28;20149;-55
2022/10/19 01:45:21;;;;;;;9.10;1.42;;;11.60;99.90;;;;;;5011536;28;20120;-55
2022/10/19 01:48:04;;;;;;;12.13;2.80;;;11.60;99.90;;;;;;5011544;28;20041;-55
2022/10/19 01:50:39;;;;;;;9.88;1.40;;;11.50;99.90;;;;;;5011773;28;20112;-55
2022/10/19 01:53:08;;;;;;;8.35;1.23;;;11.50;99.90;;;;;;5011701;28;20563;-55
2022/10/19 01:55:39;;;;;;;6.22;1.27;;;11.50;99.90;;;;;;5011641;28;20509;-55
2022/10/19 01:58:09;;;;;;;6.65;1.30;;;11.50;99.90;;;;;;5011427;28;20532;-55
2022/10/19 02:00:37;;;;;;;4.43;1.33;;;11.60;99.90;;;;;;5011491;28;20034;-55
2022/10/19 02:03:04;;;;;;;8.43;1.33;;;11.60;99.90;;;;;;5011688;28;20045;-55
2022/10/19 02:05:32;;;;;;;8.70;1.48;;;11.60;99.90;;;;;;5014913;28;20084;-55
2022/10/19 02:08:13;;;;;;;12.32;1.30;;;11.60;99.90;;;;;;5030154;28;20098;-55
2022/10/19 02:10:41;;;;;;;5.90;1.33;;;11.60;99.90;;;;;;5095636;28;20047;-55
2022/10/19 02:13:08;;;;;;;8.50;1.92;;;11.70;99.90;;;;;;5096816;28;20490;-55
2022/10/19 02:15:37;;;;;;;5.70;1.35;;;11.70;99.90;;;;;;5097315;28;20089;-55
2022/10/19 02:18:05;;;;;;;9.93;2.00;;;11.70;99.90;;;;;;5097303;28;20381;-55
2022/10/19 02:20:33;;;;;;;5.07;1.42;;;11.60;99.90;;;;;;5097352;28;20054;-55
2022/10/19 02:22:59;;;;;;;9.40;1.80;;;11.60;99.90;;;;;;5097248;28;20482;-55
2022/10/19 02:25:25;;;;;;;5.68;1.30;;;11.60;99.90;;;;;;5097030;28;20032;-55
2022/10/19 02:27:51;;;;;;;9.70;1.50;;;11.60;99.90;;;;;;5095920;28;20059;-55
2022/10/19 02:30:21;;;;;;;7.60;1.35;;;11.50;99.90;;;;;;5097115;28;20040;-55
2022/10/19 02:32:46;;;;;;;7.10;1.73;;;11.60;99.90;;;;;;5097133;28;20051;-55
2022/10/19 02:35:14;;;;;;;5.72;1.02;;;11.50;99.90;;;;;;5097051;28;20040;-55
2022/10/19 02:37:40;;;;;;;4.68;0.90;;;11.50;99.90;;;;;;5095892;28;20470;-55
2022/10/19 02:40:06;;;;;;;15.65;2.45;;;11.40;99.90;;;;;;5115734;28;20043;-55
2022/10/19 02:42:38;;;;;;;9.23;2.13;;;11.40;99.90;;;;;;5116657;28;20517;-55
2022/10/19 02:45:04;;;;;;;8.50;1.30;;;11.30;99.90;;;;;;5117180;28;20043;-55
2022/10/19 02:47:51;;;;;;;7.38;1.95;;;11.30;99.90;;;;;;5117045;28;20043;-55
2022/10/19 02:50:19;;;;;;;8.02;1.17;;;11.20;99.90;;;;;;5098216;28;20482;-55
2022/10/19 02:52:44;;;;;;;10.60;1.88;;;11.20;99.90;;;;;;5098580;28;20043;-55
2022/10/19 02:55:10;;;;;;;7.65;1.40;;;11.10;99.90;;;;;;5117361;28;20047;-55
2022/10/19 02:57:36;;;;;;;4.22;1.02;;;11.10;99.90;;;;;;5116789;28;20039;-55
2022/10/19 03:00:04;;;;;;;9.25;1.27;;;11.10;99.90;;;;;;5116894;28;20436;-55
2022/10/19 03:02:30;;;;;;;15.27;1.40;;;11.10;99.90;;;;;;5116855;28;20485;-55
2022/10/19 03:04:55;;;;;;;6.03;1.55;;;11.00;99.90;;;;;;5116818;28;20035;-55
2022/10/19 03:07:21;;;;;;;14.27;1.55;;;11.00;99.90;;;;;;5115475;28;20466;-55
2022/10/19 03:09:48;;;;;;;10.77;1.45;;;11.00;99.90;;;;;;5132668;27;20063;-55
2022/10/19 03:12:14;;;;;;;7.30;1.20;;;10.90;99.90;;;;;;5136346;27;20035;-55
2022/10/19 03:14:40;;;;;;;17.77;1.67;;;10.90;99.90;;;;;;5136742;27;20031;-55
2022/10/19 03:17:06;;;;;;;9.10;1.55;;;10.90;99.90;;;;;;5136149;27;20501;-55
2022/10/19 03:19:34;;;;;;;12.60;1.60;;;10.80;99.90;;;;;;5136987;27;20039;-55
2022/10/19 03:21:59;;;;;;;5.82;1.38;;;10.70;99.90;;;;;;5137106;27;20042;-55
2022/10/19 03:24:25;;;;;;;11.52;2.33;;;10.70;99.90;;;;;;5137077;27;20389;-55
2022/10/19 03:26:51;;;;;;;10.60;1.95;;;10.60;99.90;;;;;;5136966;27;20035;-55
2022/10/19 03:29:16;;;;;;;10.40;1.75;;;10.50;99.90;;;;;;5118499;27;20039;-55
2022/10/19 03:31:42;;;;;;;8.18;1.30;;;10.40;99.90;;;;;;5136766;27;20042;-55
2022/10/19 03:34:08;;;;;;;9.65;1.15;;;10.50;99.90;;;;;;5136835;27;20435;-55
2022/10/19 03:36:39;;;;;;;9.00;1.25;;;10.50;99.90;;;;;;5135849;27;20063;-55
2022/10/19 03:39:09;;;;;;;10.60;1.58;;;10.50;99.90;;;;;;5134581;27;20047;-55
2022/10/19 03:41:35;;;;;;;8.73;1.88;;;10.50;99.90;;;;;;5135107;27;20023;-56
2022/10/19 03:44:01;;;;;;;11.80;2.33;;;10.50;99.90;;;;;;5136574;27;20045;-55
2022/10/19 03:46:27;;;;;;;11.27;1.50;;;10.50;99.90;;;;;;5136375;27;20379;-55
2022/10/19 03:48:53;;;;;;;4.97;2.00;;;10.50;99.90;;;;;;5136447;27;20150;-55
2022/10/19 03:51:21;;;;;;;11.13;1.40;;;10.50;99.90;;;;;;5136542;27;20039;-55
2022/10/19 03:53:51;;;;;;;11.70;2.47;;;10.60;99.90;;;;;;5136516;27;20039;-55
2022/10/19 03:56:21;;;;;;;9.95;1.90;;;10.60;99.90;;;;;;5136393;27;20038;-55
2022/10/19 03:58:48;;;;;;;8.60;1.83;;;10.60;99.90;;;;;;5136236;27;20031;-55
2022/10/19 04:01:17;;;;;;;8.05;1.17;;;10.60;99.90;;;;;;5136350;27;20039;-55
2022/10/19 04:03:43;;;;;;;16.47;1.53;;;10.70;99.90;;;;;;5136242;27;20042;-55
2022/10/19 04:06:16;;;;;;;7.70;2.65;;;10.60;99.90;;;;;;5136030;27;20348;-55
2022/10/19 04:08:43;;;;;;;8.75;1.50;;;10.70;99.90;;;;;;5133673;27;20132;-55
2022/10/19 04:11:13;;;;;;;12.43;2.03;;;10.70;99.90;;;;;;5131994;27;20035;-55
2022/10/19 04:13:39;;;;;;;13.68;1.95;;;10.80;99.90;;;;;;5115543;28;20100;-55
2022/10/19 04:16:06;;;;;;;6.43;1.58;;;10.70;99.90;;;;;;5115444;28;20074;-55
2022/10/19 04:18:32;;;;;;;10.20;1.70;;;10.70;99.90;;;;;;5115109;28;20528;-55
2022/10/19 04:21:00;;;;;;;7.53;1.67;;;10.70;99.90;;;;;;5115377;28;20043;-55
2022/10/19 04:23:28;;;;;;;12.85;2.95;;;10.80;99.90;;;;;;5115342;28;20043;-55
2022/10/19 04:26:06;;;;;;;7.97;1.75;;;10.70;99.90;;;;;;5096887;28;20069;-55
2022/10/19 04:28:33;;;;;;;11.07;1.48;;;10.70;99.90;;;;;;5115059;28;20092;-55
2022/10/19 04:31:04;;;;;;;19.98;3.08;;;10.70;99.90;;;;;;5115171;28;20100;-55
2022/10/19 04:33:30;;;;;;;13.95;1.55;;;10.80;99.90;;;;;;5114966;28;20040;-55
2022/10/19 04:36:00;;;;;;;9.43;2.08;;;10.70;99.90;;;;;;5114812;28;20031;-55
2022/10/19 04:38:26;;;;;;;12.85;2.25;;;10.80;99.90;;;;;;5115164;28;20047;-55
2022/10/19 04:40:52;;;;;;;7.55;1.70;;;10.80;99.90;;;;;;5114628;28;20071;-55
2022/10/19 04:43:17;;;;;;;9.65;1.77;;;10.80;99.90;;;;;;5114734;28;20071;-55
2022/10/19 04:45:43;;;;;;;13.63;2.05;;;10.90;99.90;;;;;;5114898;28;20035;-55
2022/10/19 04:48:08;;;;;;;11.48;2.15;;;10.80;99.90;;;;;;5114885;28;20048;-55
2022/10/19 04:50:34;;;;;;;9.05;1.48;;;10.90;99.90;;;;;;5114784;28;20394;-54
2022/10/19 04:53:00;;;;;;;9.80;1.90;;;10.90;99.90;;;;;;5114709;28;20596;-55
2022/10/19 04:55:25;;;;;;;11.68;2.40;;;10.90;99.90;;;;;;5114772;28;20067;-55
2022/10/19 04:57:51;;;;;;;11.65;2.22;;;10.90;99.90;;;;;;5114524;28;20490;-55
2022/10/19 05:00:17;;;;;;;12.02;1.80;;;11.00;99.90;;;;;;5114700;28;20031;-55
2022/10/19 05:02:44;;;;;;;14.93;1.83;;;11.00;99.90;;;;;;5114607;28;20116;-55
2022/10/19 05:05:10;;;;;;;11.48;2.72;;;11.00;99.90;;;;;;5114597;28;20027;-55
2022/10/19 05:07:35;;;;;;;11.30;1.67;;;11.00;99.90;;;;;;5113993;27;20458;-55
2022/10/19 05:10:01;;;;;;;10.65;1.85;;;11.00;99.90;;;;;;5114460;28;20080;-56
2022/10/19 05:12:27;;;;;;;9.93;1.50;;;11.00;99.90;;;;;;5114678;28;20089;-55
2022/10/19 05:14:52;;;;;;;7.75;1.73;;;11.00;99.90;;;;;;5114422;28;20039;-55
2022/10/19 05:17:18;;;;;;;13.18;2.35;;;11.00;99.90;;;;;;5114374;28;20553;-55
2022/10/19 05:19:44;;;;;;;10.05;1.58;;;11.10;99.90;;;;;;5114410;28;20038;-55
2022/10/19 05:22:09;;;;;;;13.25;2.28;;;11.00;99.90;;;;;;5114242;28;20502;-55
2022/10/19 05:24:35;;;;;;;11.82;2.13;;;11.10;99.90;;;;;;5114340;28;20069;-55
2022/10/19 05:27:00;;;;;;;11.00;1.92;;;11.00;99.90;;;;;;5114300;28;20043;-55
2022/10/19 05:29:27;;;;;;;15.13;1.77;;;11.10;99.90;;;;;;5114139;28;20035;-54
2022/10/19 05:31:52;;;;;;;8.95;1.70;;;11.00;99.90;;;;;;5096224;28;20035;-54
2022/10/19 05:34:18;;;;;;;10.13;2.45;;;11.10;99.90;;;;;;5114043;28;20398;-55
2022/10/19 05:36:44;;;;;;;17.25;2.65;;;11.10;99.90;;;;;;5095929;28;20451;-55
2022/10/19 05:39:15;;;;;;;12.77;1.90;;;11.00;99.90;;;;;;5115501;28;20047;-56
2022/10/19 05:41:44;;;;;;;11.77;1.73;;;11.20;99.90;;;;;;5118270;28;20482;-55
2022/10/19 05:44:16;;;;;;;14.25;2.05;;;11.10;99.90;;;;;;5118231;28;20035;-55
2022/10/19 05:46:41;;;;;;;14.82;1.88;;;11.10;99.90;;;;;;5118395;28;20040;-55
2022/10/19 05:49:07;;;;;;;17.05;2.25;;;11.10;99.90;;;;;;5118396;28;20032;-55
2022/10/19 05:51:32;;;;;;;11.32;1.70;;;11.10;99.90;;;;;;5118326;28;20071;-55
2022/10/19 05:53:58;;;;;;;10.50;2.20;;;11.20;99.90;;;;;;5116901;28;20032;-55
2022/10/19 05:56:29;;;;;;;15.57;1.88;;;11.20;99.90;;;;;;5118398;28;20039;-55
2022/10/19 05:58:56;;;;;;;17.92;2.25;;;11.10;99.90;;;;;;5118161;28;20046;-55
2022/10/19 06:01:22;;;;;;;9.32;1.65;;;11.20;99.90;;;;;;5117075;28;20084;-55
2022/10/19 06:03:51;;;;;;;14.57;1.95;;;11.20;99.90;;;;;;5118095;28;20035;-55
2022/10/19 06:06:17;;;;;;;9.82;1.73;;;11.20;99.90;;;;;;5117682;28;20039;-55
2022/10/19 06:08:43;;;;;;;12.05;2.05;;;11.20;99.90;;;;;;5115819;27;21577;-55
2022/10/19 06:11:18;;;;;;;7.50;1.52;;;11.20;99.90;;;;;;5116300;28;20439;-55
2022/10/19 06:13:45;;;;;;;13.95;1.70;;;11.20;99.90;;;;;;5138293;27;20043;-55
2022/10/19 06:16:13;;;;;;;10.80;1.65;;;11.20;99.90;;;;;;5138331;27;20043;-55
2022/10/19 06:18:39;;;;;;;8.30;2.67;;;11.20;99.90;;;;;;5138234;27;20047;-55
2022/10/19 06:21:09;;;;;;;13.85;1.50;;;11.20;99.90;;;;;;5137918;27;20035;-55
2022/10/19 06:23:35;;;;;;;10.43;1.80;;;11.20;99.90;;;;;;5138058;27;20122;-55
2022/10/19 06:26:06;;;;;;;12.90;1.77;;;11.20;99.90;;;;;;5119548;27;20046;-55
2022/10/19 06:28:33;;;;;;;13.50;1.85;;;11.20;99.90;;;;;;5137976;27;20046;-55
2022/10/19 06:30:59;;;;;;;11.93;1.73;;;11.20;99.90;;;;;;5137917;27;20119;-55
2022/10/19 06:33:26;;;;;;;7.93;2.38;;;11.20;99.90;;;;;;5137854;27;20051;-55
2022/10/19 06:35:52;;;;;;;12.35;2.03;;;11.20;99.90;;;;;;5136784;27;20067;-56
2022/10/19 06:38:18;;;;;;;49.05;3.30;;;11.20;99.90;;;;;;5135181;27;20035;-56
2022/10/19 06:40:44;;;;;;;15.63;1.98;;;11.30;99.90;;;;;;5135503;27;20396;-55
2022/10/19 06:43:09;;;;;;;9.55;1.67;;;11.30;99.90;;;;;;5136932;27;20039;-55
2022/10/19 06:45:38;;;;;;;11.70;1.40;;;11.30;99.90;;;;;;5137703;27;20035;-56
2022/10/19 06:48:04;;;;;;;10.63;1.40;;;11.30;99.90;;;;;;5137591;27;20118;-56
2022/10/19 06:50:31;;;;;;;14.57;1.92;;;11.30;99.90;;;;;;5137297;27;20043;-55
2022/10/19 06:52:59;;;;;;;18.92;2.83;;;11.30;99.90;;;;;;5137667;27;20058;-56
2022/10/19 06:55:25;;;;;;;16.25;2.08;;;11.30;99.90;;;;;;5137466;27;20546;-55
2022/10/19 06:57:51;;;;;;;15.48;2.38;;;11.40;99.90;;;;;;5137100;27;20079;-55
2022/10/19 07:00:17;;;;;;;15.70;2.13;;;11.40;99.90;;;;;;5137374;27;20397;-55
2022/10/19 07:02:42;;;;;;;6.82;1.17;;;11.40;99.90;;;;;;5137336;27;20035;-56
2022/10/19 07:05:09;;;;;;;9.85;2.15;;;11.40;99.90;;;;;;5118588;27;20055;-55
2022/10/19 07:07:34;;;;;;;8.27;1.25;;;11.40;99.90;;;;;;5136220;27;20035;-56
2022/10/19 07:10:00;;;;;;;9.35;1.70;;;11.60;99.90;;;;;;5118474;27;20035;-55
2022/10/19 07:12:26;;;;;;;13.20;1.88;;;11.40;99.90;;;;;;5135696;27;20038;-55
2022/10/19 07:14:53;;;;;;;8.75;2.75;;;11.50;99.90;;;;;;5136989;27;20031;-55
2022/10/19 07:17:18;;;;;;;7.38;1.90;;;11.50;99.90;;;;;;5136746;27;20039;-55
2022/10/19 07:19:44;;;;;;;6.78;1.77;;;11.50;99.90;;;;;;5137142;27;20042;-55
2022/10/19 07:22:10;;;;;;;14.18;2.20;;;11.50;99.90;;;;;;5136946;27;20043;-55
2022/10/19 07:24:35;;;;;;;13.02;2.80;;;11.60;99.90;;;;;;5136930;27;20031;-55
2022/10/19 07:27:01;;;;;;;12.45;2.20;;;11.60;99.90;;;;;;5136889;27;20077;-55
2022/10/19 07:29:27;;;;;;;14.65;2.13;;;11.60;99.90;;;;;;5137244;27;20046;-55
2022/10/19 07:31:52;;;;;;;7.90;2.45;;;11.60;99.90;;;;;;5136772;27;20039;-55
2022/10/19 07:34:18;;;;;;;17.33;2.58;;;11.70;99.90;;;;;;5136368;27;20035;-55
2022/10/19 07:36:46;;;;;;;6.05;1.33;;;11.70;99.90;;;;;;5136302;27;20118;-56
2022/10/19 07:39:15;;;;;;;12.23;1.80;;;11.80;99.90;;;;;;5116648;27;20051;-56
2022/10/19 07:41:42;;;;;;;7.88;1.90;;;11.80;99.90;;;;;;5134418;27;20054;-55
2022/10/19 07:44:08;;;;;;;10.95;1.60;;;11.70;99.90;;;;;;5135919;27;20385;-55
2022/10/19 07:46:35;;;;;;;14.88;1.70;;;11.70;99.90;;;;;;5136658;27;20031;-56
2022/10/19 07:49:03;;;;;;;8.73;1.75;;;11.80;99.90;;;;;;5136585;27;20039;-56
2022/10/19 07:51:28;;;;;;;10.73;2.17;;;11.80;99.90;;;;;;5136428;27;20113;-56
2022/10/19 07:53:54;;;;;;;9.05;1.60;;;11.90;99.90;;;;;;5136430;27;20114;-55
2022/10/19 07:56:22;;;;;;;9.73;2.88;;;11.90;99.90;;;;;;5136147;27;20419;-56
2022/10/19 07:58:52;;;;;;;10.35;1.42;;;11.90;99.90;;;;;;5136356;27;20039;-56
2022/10/19 08:01:20;;;;;;;10.07;2.13;;;12.00;99.90;;;;;;5135572;27;20046;-56
2022/10/19 08:03:47;;;;;;;8.93;1.70;;;12.00;99.90;;;;;;5136215;27;20032;-55
2022/10/19 08:06:16;;;;;;;15.95;3.67;;;12.00;99.90;;;;;;5136198;27;20434;-56
2022/10/19 08:08:42;;;;;;;12.45;2.00;;;12.10;99.90;;;;;;5114732;28;20039;-55
2022/10/19 08:11:18;;;;;;;8.40;1.80;;;12.00;99.90;;;;;;5113951;28;20076;-55
2022/10/19 08:13:44;;;;;;;12.95;1.92;;;12.10;99.90;;;;;;5113730;28;21700;-56
2022/10/19 08:16:24;;;;;;;10.07;1.85;;;12.20;99.90;;;;;;5113840;28;20032;-56
2022/10/19 08:18:51;;;;;;;7.72;1.77;;;12.20;99.90;;;;;;5115164;28;20039;-55
2022/10/19 08:21:17;;;;;;;13.65;1.60;;;12.20;99.90;;;;;;5115215;28;20046;-55
2022/10/19 08:23:42;;;;;;;13.40;1.90;;;12.30;99.90;;;;;;5115311;28;20039;-56
2022/10/19 08:26:08;;;;;;;7.88;1.35;;;12.30;99.90;;;;;;5115037;28;20031;-56
2022/10/19 08:28:34;;;;;;;14.25;2.40;;;12.30;99.90;;;;;;5115173;28;20120;-55
2022/10/19 08:31:12;;;;;;;13.18;1.65;;;12.50;99.90;;;;;;5096088;28;20528;-55
2022/10/19 08:33:38;;;;;;;13.52;1.95;;;12.40;99.90;;;;;;5114576;28;20039;-55
2022/10/19 08:36:05;;;;;;;13.55;1.77;;;12.40;99.90;;;;;;5114996;28;20039;-55
2022/10/19 08:38:32;;;;;;;5.90;1.33;;;12.40;99.90;;;;;;5107946;27;20071;-55
2022/10/19 08:41:06;;;;;;;9.13;1.50;;;12.40;99.90;;;;;;5113077;28;20432;-56
2022/10/19 08:43:52;;;;;;;7.15;1.48;;;12.50;99.90;;;;;;5114524;28;20023;-55
2022/10/19 08:46:32;;;;;;;14.70;2.00;;;12.50;99.90;;;;;;5096596;28;20078;-55
2022/10/19 08:49:00;;;;;;;8.77;1.83;;;12.50;99.90;;;;;;5114764;28;20040;-55
2022/10/19 08:51:27;;;;;;;10.73;1.40;;;12.50;99.90;;;;;;5114719;28;20040;-55
2022/10/19 08:53:58;;;;;;;11.40;1.92;;;12.50;99.90;;;;;;5114233;28;20488;-55
2022/10/19 08:56:27;;;;;;;11.13;1.80;;;12.60;99.90;;;;;;5114450;28;20040;-56
2022/10/19 08:59:21;;;;;;;10.63;1.40;;;12.60;99.90;;;;;;5096196;28;20100;-56
2022/10/19 09:01:56;;;;;;;6.88;1.55;;;12.60;99.90;;;;;;5114529;28;20036;-55
2022/10/19 09:04:31;;;;;;;13.02;1.88;;;12.70;99.90;;;;;;5114539;28;20039;-55
2022/10/19 09:07:14;;;;;;;12.05;1.55;;;12.70;99.90;;;;;;5114377;28;20120;-55
2022/10/19 09:09:49;;;;;;;8.70;1.63;;;12.70;99.90;;;;;;5112554;28;20474;-55
2022/10/19 09:12:31;;;;;;;14.38;1.60;;;12.80;99.90;;;;;;5122631;27;20046;-56
2022/10/19 09:15:14;;;;;;;8.75;1.80;;;12.80;99.90;;;;;;5134927;27;20073;-55
2022/10/19 09:17:40;;;;;;;10.05;1.40;;;12.90;99.90;;;;;;5134909;27;20044;-55
2022/10/19 09:20:16;;;;;;;6.63;2.00;;;12.80;99.90;;;;;;5134821;27;20084;-55
2022/10/19 09:22:43;;;;;;;7.72;1.23;;;12.80;99.90;;;;;;5134745;27;20477;-55
2022/10/19 09:25:14;;;;;;;10.77;1.60;;;12.90;99.90;;;;;;5134808;27;20519;-55
2022/10/19 09:27:43;;;;;;;9.32;1.90;;;12.90;99.90;;;;;;5134775;27;20050;-55
2022/10/19 09:30:19;;;;;;;;;;;12.90;99.90;;;;;;5135136;27;20110;-55
2022/10/19 09:32:47;;;;;;;9.07;1.42;;;12.90;99.90;;;;;;5134880;27;20288;-55
2022/10/19 09:35:31;;;;;;;4.97;1.20;;;12.90;99.90;;;;;;5134505;28;20041;-55
2022/10/19 09:37:57;;;;;;;14.38;1.73;;;12.90;99.90;;;;;;5134023;27;20303;-55
2022/10/19 09:40:25;;;;;;;7.13;1.52;;;13.00;99.90;;;;;;5134405;28;20110;-56
2022/10/19 09:42:56;;;;;;;12.73;2.53;;;13.00;99.90;;;;;;5135019;28;20046;-55
2022/10/19 09:45:52;;;;;;;13.50;2.08;;;13.00;99.90;;;;;;5134308;28;20600;-55
2022/10/19 09:48:44;;;;;;;11.32;1.70;;;13.00;99.90;;;;;;5134505;27;20046;-55
2022/10/19 09:51:12;;;;;;;11.48;1.77;;;13.00;99.90;;;;;;5134488;27;20430;-55
2022/10/19 09:53:44;;;;;;;11.52;1.83;;;13.00;99.90;;;;;;5115909;28;20031;-55
2022/10/19 09:56:18;;;;;;;9.30;1.40;;;13.10;99.90;;;;;;5116077;28;20043;-55
2022/10/19 09:58:56;;;;;;;8.07;1.58;;;13.10;99.90;;;;;;5134389;28;20035;-55
2022/10/19 10:01:36;;;;;;;15.55;2.03;;;13.10;99.90;;;;;;5115982;28;20043;-55
2022/10/19 10:04:12;;;;;;;11.35;1.80;;;13.10;99.90;;;;;;5134333;28;20122;-55
2022/10/19 10:06:38;;;;;;;5.95;1.40;;;13.10;99.90;;;;;;5134304;28;20052;-55
2022/10/19 10:09:04;;;;;;;12.43;1.63;;;13.10;99.90;;;;;;5115458;28;20122;-55
2022/10/19 10:11:34;;;;;;;8.13;1.58;;;13.10;99.90;;;;;;5134300;28;20039;-55
2022/10/19 10:14:08;;;;;;;15.73;1.85;;;13.10;99.90;;;;;;5115982;28;20126;-55
2022/10/19 10:16:35;;;;;;;9.70;1.95;;;13.10;99.90;;;;;;5134285;28;20095;-55
2022/10/19 10:19:06;;;;;;;11.20;1.70;;;13.10;99.90;;;;;;5134236;28;20087;-55
2022/10/19 10:21:44;;;;;;;7.20;1.90;;;13.10;99.90;;;;;;5133671;28;20470;-55
2022/10/19 10:24:10;;;;;;;9.23;1.92;;;13.20;99.90;;;;;;5134626;27;20068;-55
2022/10/19 10:26:42;;;;;;;9.05;1.45;;;13.20;99.90;;;;;;5138251;27;20031;-55
2022/10/19 10:29:21;;;;;;;9.48;1.73;;;13.20;99.90;;;;;;5137881;27;20481;-55
2022/10/19 10:31:50;;;;;;;12.30;2.40;;;13.30;99.90;;;;;;5138028;27;20035;-55
2022/10/19 10:34:25;;;;;;;10.25;1.40;;;13.30;99.90;;;;;;5137943;27;20035;-55
2022/10/19 10:36:53;;;;;;;7.25;2.13;;;13.20;99.90;;;;;;5137844;27;20038;-55
2022/10/19 10:39:19;;;;;;;6.57;1.60;;;13.30;99.90;;;;;;5135401;27;20043;-55
2022/10/19 10:41:47;;;;;;;11.80;1.27;;;13.30;99.90;;;;;;5135846;27;20050;-55
2022/10/19 10:44:30;;;;;;;8.30;1.58;;;13.30;99.90;;;;;;5137068;27;20092;-56
2022/10/19 10:47:00;;;;;;;13.60;1.48;;;13.30;99.90;;;;;;5137231;27;20487;-55
2022/10/19 10:49:33;;;;;;;11.00;1.75;;;13.40;99.90;;;;;;5137776;27;20385;-55
2022/10/19 10:52:19;;;;;;;11.60;1.65;;;13.40;99.90;;;;;;5137716;27;20114;-55
2022/10/19 10:55:25;;;;;;;8.55;1.30;;;13.40;99.90;;;;;;5117992;27;20401;-55
2022/10/19 10:57:58;;;;;;;8.80;1.60;;;13.40;99.90;;;;;;5118883;27;20505;-56
2022/10/19 11:00:23;;;;;;;9.52;1.48;;;13.50;99.90;;;;;;5137789;27;20039;-55
2022/10/19 11:03:12;;;;;;;5.97;1.60;;;13.60;99.90;;;;;;5137499;27;20381;-55
2022/10/19 11:05:45;;;;;;;13.02;1.88;;;13.60;99.90;;;;;;5137233;27;20119;-55
2022/10/19 11:08:11;;;;;;;10.35;1.42;;;13.80;99.90;;;;;;5137213;27;20074;-55
2022/10/19 11:10:58;;;;;;;6.03;1.50;;;13.80;99.90;;;;;;5137459;27;20047;-56
2022/10/19 11:13:34;;;;;;;6.40;2.28;;;13.90;99.90;;;;;;5137211;27;20046;-55
2022/10/19 11:16:12;;;;;;;7.00;1.52;;;14.00;99.90;;;;;;5137203;27;20042;-55
2022/10/19 11:18:46;;;;;;;6.40;1.10;;;14.00;99.90;;;;;;5137096;27;20088;-55
2022/10/19 11:21:30;;;;;;;8.63;1.90;;;14.00;99.90;;;;;;5137353;27;20027;-55
2022/10/19 11:24:21;;;;;;;7.22;1.20;;;14.00;99.90;;;;;;5136924;27;20066;-55
2022/10/19 11:27:15;;;;;;;9.80;2.30;;;14.00;99.90;;;;;;5136985;27;20039;-55
2022/10/19 11:30:12;;;;;;;7.80;1.35;;;14.00;99.90;;;;;;5136978;27;20075;-54
2022/10/19 11:32:56;;;;;;;10.13;1.92;;;14.10;99.90;;;;;;5136569;27;20485;-55
2022/10/19 11:35:40;;;;;;;11.85;1.35;;;14.10;99.90;;;;;;5136682;27;20035;-55
2022/10/19 11:38:31;;;;;;;5.65;1.20;;;14.10;99.90;;;;;;5135954;27;20405;-55
2022/10/19 11:41:06;;;;;;;7.10;1.90;;;14.10;99.90;;;;;;5136821;27;20066;-55
2022/10/19 11:44:13;;;;;;;7.63;2.50;;;14.10;99.90;;;;;;5136623;27;20110;-55
2022/10/19 11:46:54;;;;;;;9.45;2.13;;;14.40;99.90;;;;;;5136675;27;20118;-55
2022/10/19 11:49:49;;;;;;;47.58;4.97;;;14.60;99.90;;;;;;5136381;27;20528;-55
2022/10/19 11:52:23;;;;;;;9.02;1.63;;;14.60;99.90;;;;;;5135786;27;20103;-55
2022/10/19 11:55:28;;;;;;;7.30;1.58;;;14.40;99.90;;;;;;5136637;27;20544;-55
2022/10/19 11:58:27;;;;;;;6.32;1.45;;;14.30;99.90;;;;;;5123060;27;20419;-55
2022/10/19 12:01:11;;;;;;;7.63;1.40;;;14.30;99.90;;;;;;5118306;27;20051;-55
2022/10/19 12:04:11;;;;;;;6.05;1.40;;;14.30;99.90;;;;;;5118251;27;20058;-55
2022/10/19 12:07:00;;;;;;;11.48;1.92;;;14.30;99.90;;;;;;5136079;27;20051;-55
2022/10/19 12:09:47;;;;;;;10.40;1.73;;;14.30;99.90;;;;;;5136170;27;20373;-55
2022/10/19 12:12:35;;;;;;;7.40;1.60;;;14.30;99.90;;;;;;5136097;27;20117;-55
2022/10/19 12:15:15;;;;;;;7.43;1.52;;;14.40;99.90;;;;;;5135817;27;20035;-55
2022/10/19 12:17:46;;;;;;;7.22;1.45;;;14.20;99.90;;;;;;5135841;27;20122;-55
2022/10/19 12:20:41;;;;;;;6.30;1.38;;;14.10;99.90;;;;;;5135873;27;20039;-55
2022/10/19 12:23:36;;;;;;;8.73;1.73;;;14.10;99.90;;;;;;5134866;27;20062;-55
2022/10/19 12:26:08;;;;;;;8.60;1.67;;;14.20;99.90;;;;;;5135923;27;20035;-55
2022/10/19 12:28:39;;;;;;;12.05;1.98;;;14.00;99.90;;;;;;5135912;27;20165;-55
2022/10/19 12:31:06;;;;;;;5.38;1.20;;;14.10;99.90;;;;;;5116710;27;20054;-55
2022/10/19 12:33:46;;;;;;;11.70;1.45;;;14.20;99.90;;;;;;5135615;27;20039;-55
2022/10/19 12:36:23;;;;;;;9.70;1.77;;;14.10;99.90;;;;;;5135595;27;20118;-55
2022/10/19 12:38:54;;;;;;;7.32;1.50;;;14.20;99.90;;;;;;5113604;28;20083;-55
2022/10/19 12:41:29;;;;;;;9.20;1.20;;;14.20;99.90;;;;;;5114997;28;20194;-55
2022/10/19 12:44:28;;;;;;;8.43;1.42;;;14.10;99.90;;;;;;5114656;28;20035;-55
2022/10/19 12:47:09;;;;;;;8.43;1.20;;;14.10;99.90;;;;;;5103852;28;20079;-55
2022/10/19 12:49:43;;;;;;;7.05;1.63;;;14.00;99.90;;;;;;5114804;28;20477;-55
2022/10/19 12:52:10;;;;;;;6.20;2.08;;;14.00;99.90;;;;;;5114832;28;20031;-55
2022/10/19 12:54:38;;;;;;;5.45;1.70;;;14.00;99.90;;;;;;5114677;28;20036;-54
2022/10/19 12:57:24;;;;;;;9.77;1.27;;;14.00;99.90;;;;;;5114571;28;20123;-55
2022/10/19 13:00:21;;;;;;;6.25;1.20;;;14.20;99.90;;;;;;5114494;28;20378;-55
2022/10/19 13:02:58;;;;;;;11.05;1.92;;;14.40;99.90;;;;;;5031950;28;20042;-55
2022/10/19 13:05:26;;;;;;;7.82;1.73;;;14.50;99.90;;;;;;5032005;28;20554;-55